createdAt,value
2022-12-04T00:01:59.868Z,97252.00
2022-12-04T00:04:28.388Z,97265.00
2022-12-04T00:06:59.056Z,97236.00
2022-12-04T00:09:27.933Z,97233.00
2022-12-04T00:11:56.333Z,97242.00
2022-12-04T00:14:25.149Z,97234.00
2022-12-04T00:16:53.468Z,97239.00
2022-12-04T00:19:21.899Z,97248.00
2022-12-04T00:21:51.806Z,97215.00
2022-12-04T00:24:21.724Z,97227.00
2022-12-04T00:26:50.295Z,97235.00
2022-12-04T00:29:19.143Z,97232.00
2022-12-04T00:31:47.574Z,97232.00
2022-12-04T00:34:15.969Z,97226.00
2022-12-04T00:36:44.723Z,97244.00
2022-12-04T00:39:13.132Z,97229.00
2022-12-04T00:41:42.636Z,97230.00
2022-12-04T00:44:10.780Z,97228.00
2022-12-04T00:46:38.906Z,97211.00
2022-12-04T00:49:07.028Z,97207.00
2022-12-04T00:51:35.234Z,97201.00
2022-12-04T00:54:03.399Z,97199.00
2022-12-04T00:56:31.659Z,97195.00
2022-12-04T00:59:02.450Z,97183.00
2022-12-04T01:01:32.056Z,97190.00
2022-12-04T01:04:00.688Z,97194.00
2022-12-04T01:06:31.471Z,97193.00
2022-12-04T01:09:01.697Z,97197.00
2022-12-04T01:11:30.889Z,97207.00
2022-12-04T01:14:01.361Z,97186.00
2022-12-04T01:16:33.651Z,97183.00
2022-12-04T01:19:02.954Z,97197.00
2022-12-04T01:21:31.362Z,97213.00
2022-12-04T01:23:59.909Z,97188.00
2022-12-04T01:26:28.839Z,97201.00
2022-12-04T01:28:57.118Z,97214.00
2022-12-04T01:31:26.790Z,97194.00
2022-12-04T01:33:55.177Z,97190.00
2022-12-04T01:36:26.945Z,97197.00
2022-12-04T01:38:55.916Z,97190.00
2022-12-04T01:41:28.208Z,97179.00
2022-12-04T01:44:16.077Z,97170.00
2022-12-04T01:46:48.479Z,97180.00
2022-12-04T01:49:22.571Z,97175.00
2022-12-04T01:51:55.432Z,97183.00
2022-12-04T01:54:29.176Z,97170.00
2022-12-04T01:57:04.728Z,97167.00
2022-12-04T01:59:40.104Z,97179.00
2022-12-04T02:02:14.493Z,97171.00
2022-12-04T02:04:43.689Z,97181.00
2022-12-04T02:07:13.006Z,97179.00
2022-12-04T02:09:43.521Z,97183.00
2022-12-04T02:12:21.547Z,97173.00
2022-12-04T02:15:03.636Z,97183.00
2022-12-04T02:17:44.242Z,97201.00
2022-12-04T02:20:28.062Z,97188.00
2022-12-04T02:23:40.860Z,97209.00
2022-12-04T02:26:37.814Z,97207.00
2022-12-04T02:29:16.899Z,97198.00
2022-12-04T02:31:55.766Z,97193.00
2022-12-04T02:34:30.486Z,97205.00
2022-12-04T02:37:05.670Z,97202.00
2022-12-04T02:39:41.285Z,97201.00
2022-12-04T02:42:15.357Z,97204.00
2022-12-04T02:44:51.423Z,97194.00
2022-12-04T02:47:25.128Z,97193.00
2022-12-04T02:49:59.952Z,97180.00
2022-12-04T02:52:34.713Z,97179.00
2022-12-04T02:55:09.185Z,97182.00
2022-12-04T02:57:45.037Z,97180.00
2022-12-04T03:00:16.713Z,97180.00
2022-12-04T03:02:57.113Z,97187.00
2022-12-04T03:05:45.865Z,97189.00
2022-12-04T03:08:23.478Z,97176.00
2022-12-04T03:10:57.849Z,97171.00
2022-12-04T03:13:32.411Z,97148.00
2022-12-04T03:16:09.049Z,97157.00
2022-12-04T03:18:43.980Z,97143.00
2022-12-04T03:21:17.501Z,97147.00
2022-12-04T03:23:52.919Z,97149.00
2022-12-04T03:26:28.567Z,97134.00
2022-12-04T03:29:09.060Z,97136.00
2022-12-04T03:31:47.713Z,97120.00
2022-12-04T03:34:25.688Z,97118.00
2022-12-04T03:36:58.665Z,97122.00
2022-12-04T03:39:36.049Z,97134.00
2022-12-04T03:42:12.413Z,97143.00
2022-12-04T03:44:47.324Z,97123.00
2022-12-04T03:47:24.247Z,97116.00
2022-12-04T03:50:00.265Z,97131.00
2022-12-04T03:52:38.238Z,97127.00
2022-12-04T03:55:14.684Z,97139.00
2022-12-04T03:57:46.469Z,97135.00
2022-12-04T04:00:18.850Z,97126.00
2022-12-04T04:02:56.305Z,97142.00
2022-12-04T04:05:27.815Z,97122.00
2022-12-04T04:08:21.495Z,97129.00
2022-12-04T04:10:53.396Z,97113.00
2022-12-04T04:13:46.200Z,97106.00
2022-12-04T04:16:37.456Z,97099.00
2022-12-04T04:19:28.227Z,97095.00
2022-12-04T04:22:17.622Z,97104.00
2022-12-04T04:24:53.127Z,97100.00
2022-12-04T04:27:21.374Z,97099.00
2022-12-04T04:29:52.512Z,97097.00
2022-12-04T04:32:34.079Z,97096.00
2022-12-04T04:35:18.124Z,97100.00
2022-12-04T04:37:58.971Z,97104.00
2022-12-04T04:40:37.442Z,97109.00
2022-12-04T04:43:14.639Z,97106.00
2022-12-04T04:45:46.668Z,97108.00
2022-12-04T04:48:22.827Z,97117.00
2022-12-04T04:50:53.837Z,97128.00
2022-12-04T04:53:28.468Z,97128.00
2022-12-04T04:55:57.561Z,97123.00
2022-12-04T04:58:25.713Z,97134.00
2022-12-04T05:01:00.676Z,97137.00
2022-12-04T05:03:30.067Z,97138.00
2022-12-04T05:05:59.776Z,97130.00
2022-12-04T05:08:28.064Z,97133.00
2022-12-04T05:10:56.436Z,97139.00
2022-12-04T05:13:24.850Z,97130.00
2022-12-04T05:15:58.940Z,97134.00
2022-12-04T05:18:27.608Z,97135.00
2022-12-04T05:20:55.301Z,97140.00
2022-12-04T05:23:26.007Z,97129.00
2022-12-04T05:26:01.522Z,97127.00
2022-12-04T05:28:30.054Z,97129.00
2022-12-04T05:30:59.734Z,97132.00
2022-12-04T05:33:28.520Z,97135.00
2022-12-04T05:36:00.904Z,97134.00
2022-12-04T05:38:31.066Z,97138.00
2022-12-04T05:41:00.004Z,97125.00
2022-12-04T05:43:30.216Z,97145.00
2022-12-04T05:46:03.017Z,97129.00
2022-12-04T05:48:31.318Z,97125.00
2022-12-04T05:51:00.632Z,97133.00
2022-12-04T05:53:30.186Z,97139.00
2022-12-04T05:56:00.895Z,97145.00
2022-12-04T05:58:29.898Z,97136.00
2022-12-04T06:00:58.140Z,97156.00
2022-12-04T06:03:26.373Z,97140.00
2022-12-04T06:05:54.611Z,97136.00
2022-12-04T06:08:22.928Z,97149.00
2022-12-04T06:10:52.434Z,97149.00
2022-12-04T06:13:20.659Z,97149.00
2022-12-04T06:15:48.939Z,97155.00
2022-12-04T06:18:17.075Z,97166.00
2022-12-04T06:20:45.263Z,97156.00
2022-12-04T06:23:13.497Z,97147.00
2022-12-04T06:25:41.685Z,97147.00
2022-12-04T06:28:11.204Z,97160.00
2022-12-04T06:30:39.461Z,97142.00
2022-12-04T06:33:07.611Z,97139.00
2022-12-04T06:35:35.798Z,97145.00
2022-12-04T06:38:04.094Z,97162.00
2022-12-04T06:40:32.276Z,97153.00
2022-12-04T06:43:00.493Z,97164.00
2022-12-04T06:45:30.158Z,97151.00
2022-12-04T06:47:58.324Z,97166.00
2022-12-04T06:50:26.535Z,97164.00
2022-12-04T06:52:54.683Z,97176.00
2022-12-04T06:55:22.933Z,97175.00
2022-12-04T06:57:51.053Z,97166.00
2022-12-04T07:00:20.020Z,97180.00
2022-12-04T07:02:49.737Z,97161.00
2022-12-04T07:05:18.037Z,97161.00
2022-12-04T07:07:46.418Z,97173.00
2022-12-04T07:10:14.511Z,97157.00
2022-12-04T07:12:42.621Z,97135.00
2022-12-04T07:15:11.938Z,97130.00
2022-12-04T07:17:40.163Z,97136.00
2022-12-04T07:20:11.709Z,97127.00
2022-12-04T07:22:39.829Z,97119.00
2022-12-04T07:25:08.601Z,97111.00
2022-12-04T07:27:36.866Z,97122.00
2022-12-04T07:30:09.960Z,97133.00
2022-12-04T07:32:42.578Z,97127.00
2022-12-04T07:35:12.262Z,97117.00
2022-12-04T07:37:40.457Z,97115.00
2022-12-04T07:40:09.911Z,97121.00
2022-12-04T07:42:38.590Z,97128.00
2022-12-04T07:45:08.599Z,97126.00
2022-12-04T07:47:37.437Z,97117.00
2022-12-04T07:50:07.710Z,97134.00
2022-12-04T07:52:38.902Z,97145.00
2022-12-04T07:55:09.126Z,97150.00
2022-12-04T07:57:37.296Z,97146.00
2022-12-04T08:00:06.580Z,97141.00
2022-12-04T08:02:40.276Z,97134.00
2022-12-04T08:05:08.894Z,97134.00
2022-12-04T08:07:38.578Z,97138.00
2022-12-04T08:10:08.211Z,97138.00
2022-12-04T08:12:36.477Z,97148.00
2022-12-04T08:15:06.275Z,97155.00
2022-12-04T08:17:34.552Z,97151.00
2022-12-04T08:20:02.747Z,97145.00
2022-12-04T08:22:31.007Z,97139.00
2022-12-04T08:25:00.473Z,97143.00
2022-12-04T08:27:28.701Z,97142.00
2022-12-04T08:29:57.225Z,97150.00
2022-12-04T08:32:25.692Z,97148.00
2022-12-04T08:34:56.003Z,97136.00
2022-12-04T08:37:24.494Z,97138.00
2022-12-04T08:39:52.969Z,97136.00
2022-12-04T08:42:22.733Z,97160.00
2022-12-04T08:44:50.907Z,97156.00
2022-12-04T08:47:19.052Z,97160.00
2022-12-04T08:49:47.281Z,97160.00
2022-12-04T08:52:15.455Z,97150.00
2022-12-04T08:54:43.601Z,97134.00
2022-12-04T08:57:11.743Z,97146.00
2022-12-04T08:59:41.966Z,97150.00
2022-12-04T09:02:11.423Z,97156.00
2022-12-04T09:04:39.657Z,97151.00
2022-12-04T09:07:07.937Z,97158.00
2022-12-04T09:09:36.555Z,97136.00
2022-12-04T09:12:05.059Z,97139.00
2022-12-04T09:14:33.194Z,97150.00
2022-12-04T09:17:02.795Z,97144.00
2022-12-04T09:19:31.991Z,97142.00
2022-12-04T09:22:00.167Z,97144.00
2022-12-04T09:24:30.446Z,97136.00
2022-12-04T09:26:58.802Z,97140.00
2022-12-04T09:29:27.681Z,97135.00
2022-12-04T09:31:56.011Z,97127.00
2022-12-04T09:34:25.491Z,97125.00
2022-12-04T09:36:53.651Z,97123.00
2022-12-04T09:39:21.898Z,97125.00
2022-12-04T09:42:19.855Z,97127.00
2022-12-04T09:44:58.592Z,97129.00
2022-12-04T09:47:32.290Z,97125.00
2022-12-04T09:50:08.139Z,97115.00
2022-12-04T09:52:50.962Z,97112.00
2022-12-04T09:55:26.912Z,97113.00
2022-12-04T09:58:02.448Z,97101.00
2022-12-04T10:00:33.728Z,97112.00
2022-12-04T10:03:06.425Z,97125.00
2022-12-04T10:06:05.886Z,97121.00
2022-12-04T10:08:38.622Z,97114.00
2022-12-04T10:11:27.794Z,97094.00
2022-12-04T10:14:45.948Z,97103.00
2022-12-04T10:17:46.031Z,97115.00
2022-12-04T10:20:32.058Z,97108.00
2022-12-04T10:23:14.948Z,97100.00
2022-12-04T10:25:44.579Z,97090.00
2022-12-04T10:28:26.117Z,97081.00
2022-12-04T10:30:59.313Z,97077.00
2022-12-04T10:33:38.913Z,97057.00
2022-12-04T10:36:13.093Z,97058.00
2022-12-04T10:38:50.489Z,97051.00
2022-12-04T10:41:29.784Z,97065.00
2022-12-04T10:43:58.178Z,97050.00
2022-12-04T10:46:30.140Z,97042.00
2022-12-04T10:49:02.553Z,97034.00
2022-12-04T10:51:42.242Z,97034.00
2022-12-04T10:54:22.980Z,97036.00
2022-12-04T10:56:57.880Z,97032.00
2022-12-04T10:59:27.757Z,97024.00
2022-12-04T11:02:06.977Z,97026.00
2022-12-04T11:04:36.778Z,97019.00
2022-12-04T11:07:09.511Z,97018.00
2022-12-04T11:09:39.312Z,97010.00
2022-12-04T11:12:17.913Z,97022.00
2022-12-04T11:14:47.330Z,97023.00
2022-12-04T11:17:19.823Z,97015.00
2022-12-04T11:19:48.446Z,97013.00
2022-12-04T11:22:20.351Z,97015.00
2022-12-04T11:24:58.975Z,97002.00
2022-12-04T11:27:32.671Z,97006.00
2022-12-04T11:30:08.561Z,97012.00
2022-12-04T11:32:39.314Z,97007.00
2022-12-04T11:35:17.351Z,96986.00
2022-12-04T11:37:56.668Z,96998.00
2022-12-04T11:40:28.135Z,97006.00
2022-12-04T11:43:06.620Z,97017.00
2022-12-04T11:45:35.049Z,97003.00
2022-12-04T11:48:13.934Z,96998.00
2022-12-04T11:50:53.904Z,97009.00
2022-12-04T11:53:36.692Z,97013.00
2022-12-04T11:56:25.473Z,97000.00
2022-12-04T11:59:27.163Z,97014.00
2022-12-04T12:02:11.365Z,97001.00
2022-12-04T12:05:17.097Z,97006.00
2022-12-04T12:08:02.564Z,96987.00
2022-12-04T12:10:44.629Z,96982.00
2022-12-04T12:13:28.461Z,96977.00
2022-12-04T12:16:10.635Z,96978.00
2022-12-04T12:18:59.203Z,96954.00
2022-12-04T12:21:34.003Z,96954.00
2022-12-04T12:24:17.766Z,96964.00
2022-12-04T12:26:56.764Z,96957.00
2022-12-04T12:29:48.349Z,96975.00
2022-12-04T12:32:35.340Z,96966.00
2022-12-04T12:35:06.981Z,96966.00
2022-12-04T12:37:45.080Z,96969.00
2022-12-04T12:40:27.549Z,96969.00
2022-12-04T12:43:01.801Z,96970.00
2022-12-04T12:45:44.093Z,96963.00
2022-12-04T12:48:31.700Z,96967.00
2022-12-04T12:51:28.982Z,96970.00
2022-12-04T12:54:01.814Z,96955.00
2022-12-04T12:56:38.404Z,96953.00
2022-12-04T12:59:16.096Z,96956.00
2022-12-04T13:01:59.948Z,96934.00
2022-12-04T13:04:38.766Z,96936.00
2022-12-04T13:07:24.790Z,96929.00
2022-12-04T13:10:03.441Z,96922.00
2022-12-04T13:12:40.381Z,96929.00
2022-12-04T13:15:17.060Z,96935.00
2022-12-04T13:17:50.209Z,96916.00
2022-12-04T13:20:24.339Z,96905.00
2022-12-04T13:23:16.291Z,96914.00
2022-12-04T13:26:00.400Z,96910.00
2022-12-04T13:28:46.800Z,96917.00
2022-12-04T13:31:30.201Z,96907.00
2022-12-04T13:34:36.619Z,96911.00
2022-12-04T13:37:28.979Z,96908.00
2022-12-04T13:40:33.529Z,96898.00
2022-12-04T13:43:45.552Z,96899.00
2022-12-04T13:46:30.689Z,96901.00
2022-12-04T13:49:22.358Z,96904.00
2022-12-04T13:51:52.525Z,96900.00
2022-12-04T13:54:32.333Z,96899.00
2022-12-04T13:57:22.120Z,96896.00
2022-12-04T14:00:02.060Z,96889.00
2022-12-04T14:02:51.860Z,96890.00
2022-12-04T14:05:30.866Z,96897.00
2022-12-04T14:08:08.038Z,96891.00
2022-12-04T14:10:39.457Z,96888.00
2022-12-04T14:13:19.608Z,96897.00
2022-12-04T14:15:48.550Z,96890.00
2022-12-04T14:18:29.566Z,96882.00
2022-12-04T14:21:04.854Z,96900.00
2022-12-04T14:23:40.917Z,96907.00
2022-12-04T14:26:48.810Z,96906.00
2022-12-04T14:29:38.939Z,96891.00
2022-12-04T14:32:17.344Z,96888.00
2022-12-04T14:34:48.364Z,96895.00
2022-12-04T14:37:28.344Z,96899.00
2022-12-04T14:39:59.481Z,96915.00
2022-12-04T14:42:34.861Z,96904.00
2022-12-04T14:45:08.212Z,96901.00
2022-12-04T14:47:49.945Z,96888.00
2022-12-04T14:50:35.215Z,96899.00
2022-12-04T14:53:24.019Z,96896.00
2022-12-04T14:56:13.276Z,96906.00
2022-12-04T14:58:41.619Z,96901.00
2022-12-04T15:01:28.694Z,96893.00
2022-12-04T15:04:08.410Z,96894.00
2022-12-04T15:06:36.921Z,96899.00
2022-12-04T15:09:35.813Z,96902.00
2022-12-04T15:12:35.517Z,96918.00
2022-12-04T15:15:14.712Z,96910.00
2022-12-04T15:17:42.866Z,96914.00
2022-12-04T15:20:17.790Z,96914.00
2022-12-04T15:22:46.739Z,96920.00
2022-12-04T15:25:23.083Z,96913.00
2022-12-04T15:28:03.558Z,96907.00
2022-12-04T15:30:38.187Z,96917.00
2022-12-04T15:33:07.037Z,96921.00
2022-12-04T15:35:36.178Z,96928.00
2022-12-04T15:38:05.033Z,96934.00
2022-12-04T15:40:33.245Z,96920.00
2022-12-04T15:43:17.659Z,96921.00
2022-12-04T15:45:46.085Z,96924.00
2022-12-04T15:48:26.138Z,96924.00
2022-12-04T15:51:03.019Z,96926.00
2022-12-04T15:53:36.578Z,96927.00
2022-12-04T15:56:09.176Z,96924.00
2022-12-04T15:58:41.627Z,96926.00
2022-12-04T16:01:13.049Z,96930.00
2022-12-04T16:03:50.991Z,96944.00
2022-12-04T16:06:24.866Z,96934.00
2022-12-04T16:08:56.090Z,96926.00
2022-12-04T16:11:32.934Z,96937.00
2022-12-04T16:14:17.312Z,96935.00
2022-12-04T16:16:49.966Z,96939.00
2022-12-04T16:19:29.822Z,96955.00
2022-12-04T16:21:58.356Z,96949.00
2022-12-04T16:24:26.790Z,96937.00
2022-12-04T16:27:01.933Z,96931.00
2022-12-04T16:29:31.644Z,96935.00
2022-12-04T16:32:03.231Z,96933.00
2022-12-04T16:34:32.540Z,96926.00
2022-12-04T16:37:01.365Z,96932.00
2022-12-04T16:39:29.571Z,96924.00
2022-12-04T16:41:57.719Z,96923.00
2022-12-04T16:44:25.981Z,96911.00
2022-12-04T16:46:55.516Z,96920.00
2022-12-04T16:49:23.916Z,96920.00
2022-12-04T16:51:52.098Z,96930.00
2022-12-04T16:54:20.296Z,96923.00
2022-12-04T16:56:48.498Z,96924.00
2022-12-04T16:59:16.679Z,96927.00
2022-12-04T17:01:49.913Z,96924.00
2022-12-04T17:04:20.335Z,96928.00
2022-12-04T17:06:48.612Z,96932.00
2022-12-04T17:09:16.982Z,96938.00
2022-12-04T17:11:45.707Z,96934.00
2022-12-04T17:14:14.964Z,96947.00
2022-12-04T17:16:46.946Z,96946.00
2022-12-04T17:19:15.600Z,96944.00
2022-12-04T17:21:46.133Z,96939.00
2022-12-04T17:24:14.324Z,96948.00
2022-12-04T17:26:42.589Z,96951.00
2022-12-04T17:29:10.731Z,96952.00
2022-12-04T17:31:38.976Z,96953.00
2022-12-04T17:34:07.270Z,96952.00
2022-12-04T17:36:35.467Z,96954.00
2022-12-04T17:39:07.249Z,96960.00
2022-12-04T17:41:35.688Z,96958.00
2022-12-04T17:44:04.387Z,96953.00
2022-12-04T17:46:32.766Z,96958.00
2022-12-04T17:49:06.601Z,96968.00
2022-12-04T17:51:36.089Z,96960.00
2022-12-04T17:54:07.220Z,96965.00
2022-12-04T17:56:35.578Z,96967.00
2022-12-04T17:59:04.583Z,96973.00
2022-12-04T18:01:34.485Z,96976.00
2022-12-04T18:04:06.052Z,96964.00
2022-12-04T18:06:38.002Z,96957.00
2022-12-04T18:09:10.345Z,96947.00
2022-12-04T18:11:41.246Z,96937.00
2022-12-04T18:14:12.794Z,96927.00
2022-12-04T18:16:44.310Z,96924.00
2022-12-04T18:19:14.870Z,96935.00
2022-12-04T18:21:43.390Z,96924.00
2022-12-04T18:24:13.987Z,96916.00
2022-12-04T18:26:44.804Z,96916.00
2022-12-04T18:29:15.914Z,96927.00
2022-12-04T18:31:44.774Z,96927.00
2022-12-04T18:34:14.197Z,96934.00
2022-12-04T18:36:45.188Z,96916.00
2022-12-04T18:39:18.336Z,96924.00
2022-12-04T18:41:47.578Z,96948.00
2022-12-04T18:44:17.377Z,96951.00
2022-12-04T18:46:45.697Z,96948.00
2022-12-04T18:49:14.054Z,96946.00
2022-12-04T18:51:49.193Z,96947.00
2022-12-04T18:54:22.514Z,96950.00
2022-12-04T18:56:51.431Z,96954.00
2022-12-04T18:59:23.250Z,96961.00
2022-12-04T19:01:52.397Z,96948.00
2022-12-04T19:04:23.254Z,96941.00
2022-12-04T19:06:54.581Z,96950.00
2022-12-04T19:10:08.895Z,96945.00
2022-12-04T19:12:17.808Z,96945.00
2022-12-04T19:14:46.042Z,96934.00
2022-12-04T19:17:15.102Z,96939.00
2022-12-04T19:19:43.287Z,96957.00
2022-12-04T19:22:13.178Z,96948.00
2022-12-04T19:24:42.904Z,96949.00
2022-12-04T19:27:12.062Z,96961.00
2022-12-04T19:29:41.615Z,96963.00
2022-12-04T19:32:11.737Z,96965.00
2022-12-04T19:34:40.270Z,96960.00
2022-12-04T19:37:08.911Z,96957.00
2022-12-04T19:39:37.802Z,96977.00
2022-12-04T19:42:07.737Z,96974.00
2022-12-04T19:44:53.766Z,96968.00
2022-12-04T19:47:22.025Z,96963.00
2022-12-04T19:49:50.353Z,96967.00
2022-12-04T19:52:19.255Z,96981.00
2022-12-04T19:54:47.647Z,96969.00
2022-12-04T19:57:17.293Z,96979.00
2022-12-04T19:59:46.784Z,96977.00
2022-12-04T20:02:16.301Z,96974.00
2022-12-04T20:04:44.768Z,96969.00
2022-12-04T20:07:13.232Z,96974.00
2022-12-04T20:09:41.417Z,96978.00
2022-12-04T20:12:09.736Z,96966.00
2022-12-04T20:14:39.483Z,96976.00
2022-12-04T20:17:07.817Z,96981.00
2022-12-04T20:19:36.315Z,96985.00
2022-12-04T20:22:04.672Z,96992.00
2022-12-04T20:24:32.946Z,96979.00
2022-12-04T20:27:03.042Z,96992.00
2022-12-04T20:29:31.259Z,97001.00
2022-12-04T20:32:00.877Z,97004.00
2022-12-04T20:34:29.099Z,97016.00
2022-12-04T20:36:57.941Z,97025.00
2022-12-04T20:39:26.284Z,97020.00
2022-12-04T20:41:54.525Z,97015.00
2022-12-04T20:44:22.919Z,97011.00
2022-12-04T20:46:51.545Z,97001.00
2022-12-04T20:49:22.495Z,97011.00
2022-12-04T20:51:52.978Z,97004.00
2022-12-04T20:54:23.853Z,97009.00
2022-12-04T20:56:53.590Z,97019.00
2022-12-04T20:59:25.161Z,97004.00
2022-12-04T21:01:54.643Z,97002.00
2022-12-04T21:04:24.685Z,97002.00
2022-12-04T21:06:52.995Z,97004.00
2022-12-04T21:09:26.580Z,97014.00
2022-12-04T21:11:56.981Z,97012.00
2022-12-04T21:14:48.716Z,97017.00
2022-12-04T21:17:20.190Z,97021.00
2022-12-04T21:19:51.713Z,97020.00
2022-12-04T21:22:21.009Z,97013.00
2022-12-04T21:24:49.195Z,97012.00
2022-12-04T21:27:21.207Z,97013.00
2022-12-04T21:29:50.509Z,97024.00
2022-12-04T21:32:20.567Z,97027.00
2022-12-04T21:34:51.865Z,97030.00
2022-12-04T21:37:20.190Z,97031.00
2022-12-04T21:39:48.330Z,97041.00
2022-12-04T21:42:31.476Z,97040.00
2022-12-04T21:45:00.115Z,97041.00
2022-12-04T21:47:29.083Z,97042.00
2022-12-04T21:49:58.988Z,97046.00
2022-12-04T21:52:27.405Z,97040.00
2022-12-04T21:54:57.085Z,97048.00
2022-12-04T21:57:25.821Z,97056.00
2022-12-04T21:59:54.729Z,97050.00
2022-12-04T22:02:23.387Z,97063.00
2022-12-04T22:04:51.763Z,97063.00
2022-12-04T22:07:21.261Z,97065.00
2022-12-04T22:09:49.481Z,97057.00
2022-12-04T22:12:47.885Z,97066.00
2022-12-04T22:15:07.237Z,97062.00
2022-12-04T22:17:35.379Z,97065.00
2022-12-04T22:20:03.703Z,97076.00
2022-12-04T22:22:34.607Z,97073.00
2022-12-04T22:25:03.020Z,97071.00
2022-12-04T22:27:31.233Z,97066.00
2022-12-04T22:29:59.763Z,97077.00
2022-12-04T22:32:28.002Z,97062.00
2022-12-04T22:34:56.436Z,97083.00
2022-12-04T22:37:24.921Z,97068.00
2022-12-04T22:39:54.700Z,97090.00
2022-12-04T22:42:23.102Z,97088.00
2022-12-04T22:44:51.352Z,97091.00
2022-12-04T22:47:19.533Z,97090.00
2022-12-04T22:49:47.833Z,97084.00
2022-12-04T22:52:16.571Z,97096.00
2022-12-04T22:54:44.704Z,97099.00
2022-12-04T22:57:14.261Z,97090.00
2022-12-04T22:59:42.851Z,97088.00
2022-12-04T23:02:11.248Z,97092.00
2022-12-04T23:04:39.498Z,97091.00
2022-12-04T23:07:07.654Z,97092.00
2022-12-04T23:09:36.391Z,97086.00
2022-12-04T23:12:05.235Z,97093.00
2022-12-04T23:14:36.819Z,97100.00
2022-12-04T23:17:05.402Z,97097.00
2022-12-04T23:19:33.645Z,97097.00
2022-12-04T23:22:01.836Z,97093.00
2022-12-04T23:24:30.126Z,97099.00
2022-12-04T23:26:58.315Z,97095.00
2022-12-04T23:29:51.296Z,97090.00
2022-12-04T23:32:16.409Z,97107.00
2022-12-04T23:34:44.614Z,97106.00
2022-12-04T23:37:12.826Z,97106.00
2022-12-04T23:39:41.130Z,97103.00
2022-12-04T23:42:09.368Z,97109.00
2022-12-04T23:44:37.646Z,97119.00
2022-12-04T23:47:06.300Z,97101.00
2022-12-04T23:49:35.955Z,97111.00
2022-12-04T23:52:04.501Z,97124.00
2022-12-04T23:54:35.019Z,97120.00
2022-12-04T23:57:03.420Z,97114.00
2022-12-04T23:59:31.558Z,97128.00
